Time;durP1;ratioP1;P1;durP2;ratioP2;P2;SDS_P1;SDS_P2;PMS_P1;PMS_P2;Temp;Humidity;BMP_temperature;BMP_pressure;BME280_temperature;BME280_humidity;BME280_pressure;Samples;Min_cycle;Max_cycle;Signal;HPM_P1;HPM_P2
2023/10/03 00:01:35;;;;;;;;;;;22.90;80.60;;;;;;4937819;28;91598;-37
2023/10/03 00:04:02;;;;;;;;;;;22.90;80.60;;;;;;4936899;28;88866;-38
2023/10/03 00:06:28;;;;;;;;;;;22.90;80.60;;;;;;4938122;28;89971;-38
2023/10/03 00:08:54;;;;;;;;;;;22.90;80.60;;;;;;4940068;28;89546;-38
2023/10/03 00:11:20;;;;;;;;;;;22.90;80.80;;;;;;4942903;28;92576;-38
2023/10/03 00:13:46;;;;;;;;;;;22.90;80.70;;;;;;4938358;28;95404;-39
2023/10/03 00:16:11;;;;;;;;;;;22.90;80.70;;;;;;4941338;28;89456;-37
2023/10/03 00:18:37;;;;;;;;;;;22.90;80.70;;;;;;4941860;28;89483;-38
2023/10/03 00:21:03;;;;;;;;;;;22.90;80.60;;;;;;4933575;28;95641;-37
2023/10/03 00:23:29;;;;;;;;;;;22.90;80.70;;;;;;4941652;28;90183;-40
2023/10/03 00:25:55;;;;;;;;;;;22.80;80.70;;;;;;4937623;28;90280;-38
2023/10/03 00:28:20;;;;;;;;;;;22.80;80.60;;;;;;4940896;28;89441;-38
2023/10/03 00:30:48;;;;;;;;;;;22.90;80.60;;;;;;4938288;28;89532;-38
2023/10/03 00:33:13;;;;;;;;;;;22.90;80.60;;;;;;4937917;28;89502;-38
2023/10/03 00:35:42;;;;;;;;;;;22.90;80.60;;;;;;4936719;28;90574;-38
2023/10/03 00:38:13;;;;;;;;;;;22.90;80.60;;;;;;4940468;28;90416;-37
2023/10/03 00:40:40;;;;;;;;;;;22.90;80.60;;;;;;4934357;28;88875;-38
2023/10/03 00:43:07;;;;;;;;;;;22.80;80.50;;;;;;4938143;28;89876;-37
2023/10/03 00:45:33;;;;;;;;;;;22.80;80.60;;;;;;4939394;28;90328;-37
2023/10/03 00:47:59;;;;;;;;;;;22.80;80.60;;;;;;4939138;28;90223;-38
2023/10/03 00:50:26;;;;;;;;;;;22.80;80.50;;;;;;4938392;28;89427;-38
2023/10/03 00:52:56;;;;;;;;;;;22.80;80.60;;;;;;4940676;28;89767;-38
2023/10/03 00:55:28;;;;;;;;;;;22.90;80.50;;;;;;4933784;28;89699;-38
2023/10/03 00:58:06;;;;;;;;;;;22.80;80.50;;;;;;4938389;28;91124;-38
2023/10/03 01:00:37;;;;;;;;;;;22.80;80.60;;;;;;4938465;28;90602;-37
2023/10/03 01:03:03;;;;;;;;;;;22.80;80.50;;;;;;4935929;28;90703;-38
2023/10/03 01:05:29;;;;;;;;;;;22.80;80.50;;;;;;4939668;28;91128;-38
2023/10/03 01:07:55;;;;;;;;;;;22.80;80.40;;;;;;4937212;28;90843;-37
2023/10/03 01:10:21;;;;;;;;;;;22.80;80.40;;;;;;4938305;28;90899;-38
2023/10/03 01:12:47;;;;;;;;;;;22.80;80.30;;;;;;4936030;28;89951;-37
2023/10/03 01:15:23;;;;;;;;;;;22.80;80.20;;;;;;4936838;28;89394;-38
2023/10/03 01:17:53;;;;;;;;;;;22.80;80.10;;;;;;4935763;28;88748;-38
2023/10/03 01:20:26;;;;;;;;;;;22.80;80.10;;;;;;4931433;28;89541;-37
2023/10/03 01:22:54;;;;;;;;;;;22.80;80.20;;;;;;4939710;28;89706;-38
2023/10/03 01:25:20;;;;;;;;;;;22.80;80.10;;;;;;4936948;28;90892;-37
2023/10/03 01:27:46;;;;;;;;;;;22.80;80.00;;;;;;4936743;28;89487;-37
2023/10/03 01:30:12;;;;;;;;;;;22.80;80.00;;;;;;4938494;28;91406;-38
2023/10/03 01:32:41;;;;;;;;;;;22.80;80.70;;;;;;4945503;28;90323;-38
2023/10/03 01:35:08;;;;;;;;;;;22.80;80.00;;;;;;4934984;28;89344;-38
2023/10/03 01:37:34;;;;;;;;;;;22.80;80.00;;;;;;4940635;28;89517;-38
2023/10/03 01:39:59;;;;;;;;;;;22.80;79.80;;;;;;4934596;28;90420;-38
2023/10/03 01:42:25;;;;;;;;;;;22.80;79.80;;;;;;4938185;28;88738;-38
2023/10/03 01:44:50;;;;;;;;;;;22.80;79.60;;;;;;4936524;28;90077;-37
2023/10/03 01:47:16;;;;;;;;;;;22.80;79.60;;;;;;4940359;28;89555;-38
2023/10/03 01:49:42;;;;;;;;;;;22.80;79.70;;;;;;4936686;28;94076;-37
2023/10/03 01:52:07;;;;;;;;;;;22.80;79.70;;;;;;4938411;28;93311;-37
2023/10/03 01:54:34;;;;;;;;;;;22.80;79.60;;;;;;4937344;28;89950;-38
2023/10/03 01:57:00;;;;;;;;;;;22.80;79.70;;;;;;4938612;28;89999;-39
2023/10/03 01:59:26;;;;;;;;;;;22.80;79.80;;;;;;4937492;28;89475;-37
2023/10/03 02:01:51;;;;;;;;;;;22.80;79.80;;;;;;4937761;28;90118;-38
2023/10/03 02:04:17;;;;;;;;;;;22.80;79.80;;;;;;4937095;28;95542;-37
2023/10/03 02:06:44;;;;;;;;;;;22.80;79.80;;;;;;4930373;28;94469;-38
2023/10/03 02:09:10;;;;;;;;;;;22.80;79.60;;;;;;4935202;28;95091;-38
2023/10/03 02:11:37;;;;;;;;;;;22.80;79.60;;;;;;4940476;28;94741;-37
2023/10/03 02:14:07;;;;;;;;;;;22.80;79.70;;;;;;4932074;28;97259;-38
2023/10/03 02:16:36;;;;;;;;;;;22.80;79.40;;;;;;4934661;28;94666;-38
2023/10/03 02:19:01;;;;;;;;;;;22.80;79.60;;;;;;4934722;28;96256;-38
2023/10/03 02:21:27;;;;;;;;;;;22.80;79.50;;;;;;4935928;28;94901;-38
2023/10/03 02:23:52;;;;;;;;;;;22.80;79.60;;;;;;4932470;28;97986;-38
2023/10/03 02:26:18;;;;;;;;;;;22.70;79.50;;;;;;4935792;28;99559;-38
2023/10/03 02:28:43;;;;;;;;;;;22.70;79.40;;;;;;4943418;28;94811;-37
2023/10/03 02:31:10;;;;;;;;;;;22.70;79.50;;;;;;4938768;28;93974;-37
2023/10/03 02:33:37;;;;;;;;;;;22.70;79.40;;;;;;4938426;28;96200;-39
2023/10/03 02:36:04;;;;;;;;;;;22.80;79.40;;;;;;4935745;28;100411;-37
2023/10/03 02:38:31;;;;;;;;;;;22.70;79.40;;;;;;4944045;28;96075;-37
2023/10/03 02:40:57;;;;;;;;;;;22.70;79.50;;;;;;4931469;28;94768;-38
2023/10/03 02:43:24;;;;;;;;;;;22.70;79.40;;;;;;4942715;28;94554;-38
2023/10/03 02:45:49;;;;;;;;;;;22.70;79.40;;;;;;4934091;28;94485;-38
2023/10/03 02:48:15;;;;;;;;;;;22.70;79.40;;;;;;4939245;28;95159;-38
2023/10/03 02:50:45;;;;;;;;;;;22.70;79.50;;;;;;4941445;28;99057;-38
2023/10/03 02:53:23;;;;;;;;;;;22.70;79.40;;;;;;4935954;28;95351;-38
2023/10/03 02:55:52;;;;;;;;;;;22.70;79.60;;;;;;4939239;28;93914;-37
2023/10/03 02:58:19;;;;;;;;;;;22.70;79.50;;;;;;4934458;28;95493;-37
2023/10/03 03:00:46;;;;;;;;;;;22.60;79.50;;;;;;4938361;28;95540;-38
2023/10/03 03:03:12;;;;;;;;;;;22.60;79.50;;;;;;4932823;28;96284;-38
2023/10/03 03:05:38;;;;;;;;;;;22.70;79.50;;;;;;4937494;28;94403;-38
2023/10/03 03:08:29;;;;;;;;;;;22.70;79.50;;;;;;4937033;28;97606;-38
2023/10/03 03:10:57;;;;;;;;;;;22.60;79.50;;;;;;4934284;28;94689;-38
2023/10/03 03:13:27;;;;;;;;;;;22.60;79.50;;;;;;4938921;28;95107;-37
2023/10/03 03:16:05;;;;;;;;;;;22.60;79.50;;;;;;4933788;28;96265;-37
2023/10/03 03:18:40;;;;;;;;;;;22.60;79.60;;;;;;4937668;28;95200;-38
2023/10/03 03:21:15;;;;;;;;;;;22.60;79.40;;;;;;4934996;28;94540;-37
2023/10/03 03:23:49;;;;;;;;;;;22.60;79.50;;;;;;4941862;28;95067;-38
2023/10/03 03:26:17;;;;;;;;;;;22.60;79.50;;;;;;4935286;28;95399;-37
2023/10/03 03:28:46;;;;;;;;;;;22.60;79.60;;;;;;4934896;28;95685;-40
2023/10/03 03:31:22;;;;;;;;;;;22.60;79.60;;;;;;4937370;28;94578;-40
2023/10/03 03:33:56;;;;;;;;;;;22.60;79.50;;;;;;4935163;28;94591;-40
2023/10/03 03:36:23;;;;;;;;;;;22.60;79.50;;;;;;4937596;28;95490;-39
2023/10/03 03:38:49;;;;;;;;;;;22.60;79.50;;;;;;4932846;28;95650;-42
2023/10/03 03:41:15;;;;;;;;;;;22.50;79.60;;;;;;4936067;28;95414;-40
2023/10/03 03:43:42;;;;;;;;;;;22.60;79.60;;;;;;4934744;28;94643;-39
2023/10/03 03:46:08;;;;;;;;;;;22.60;79.60;;;;;;4935811;28;94130;-42
2023/10/03 03:48:34;;;;;;;;;;;22.60;79.60;;;;;;4938186;28;94712;-40
2023/10/03 03:51:06;;;;;;;;;;;22.60;79.50;;;;;;4937660;28;96453;-39
2023/10/03 03:53:32;;;;;;;;;;;22.50;79.50;;;;;;4933448;28;95680;-39
2023/10/03 03:56:04;;;;;;;;;;;22.60;79.40;;;;;;4935085;28;95474;-40
2023/10/03 03:58:31;;;;;;;;;;;22.50;79.40;;;;;;4937301;28;94943;-39
2023/10/03 04:00:58;;;;;;;;;;;22.50;79.50;;;;;;4928663;28;94957;-39
2023/10/03 04:03:24;;;;;;;;;;;22.60;79.50;;;;;;4922937;28;96657;-40
2023/10/03 04:05:50;;;;;;;;;;;22.60;79.50;;;;;;4929568;28;95543;-39
2023/10/03 04:08:16;;;;;;;;;;;22.50;79.50;;;;;;4931818;28;94138;-39
2023/10/03 04:10:44;;;;;;;;;;;22.50;79.60;;;;;;4935634;28;95071;-40
2023/10/03 04:13:10;;;;;;;;;;;22.50;79.50;;;;;;4927834;28;97157;-39
2023/10/03 04:15:43;;;;;;;;;;;22.50;79.50;;;;;;4934615;28;94690;-40
2023/10/03 04:18:15;;;;;;;;;;;22.50;79.50;;;;;;4935090;28;96015;-39
2023/10/03 04:20:46;;;;;;;;;;;22.50;79.50;;;;;;4939328;28;96759;-40
2023/10/03 04:23:12;;;;;;;;;;;22.50;79.40;;;;;;4933461;28;94698;-39
2023/10/03 04:25:39;;;;;;;;;;;22.50;79.40;;;;;;4934626;28;94408;-40
2023/10/03 04:28:05;;;;;;;;;;;22.50;79.60;;;;;;4930687;28;94746;-40
2023/10/03 04:30:31;;;;;;;;;;;22.50;79.60;;;;;;4928205;28;94833;-38
2023/10/03 04:32:57;;;;;;;;;;;22.50;79.50;;;;;;4927971;28;96365;-39
2023/10/03 04:35:23;;;;;;;;;;;22.50;79.60;;;;;;4930284;28;94291;-39
2023/10/03 04:37:52;;;;;;;;;;;22.50;79.60;;;;;;4931457;28;95646;-39
2023/10/03 04:40:22;;;;;;;;;;;22.50;79.50;;;;;;4943545;28;95317;-38
2023/10/03 04:42:50;;;;;;;;;;;22.50;79.50;;;;;;4929554;28;96131;-37
2023/10/03 04:45:19;;;;;;;;;;;22.50;79.40;;;;;;4935278;28;94643;-38
2023/10/03 04:47:45;;;;;;;;;;;22.50;79.40;;;;;;4936382;28;96840;-38
2023/10/03 04:50:11;;;;;;;;;;;22.50;79.40;;;;;;4932098;28;95251;-37
2023/10/03 04:52:38;;;;;;;;;;;22.50;79.40;;;;;;4914609;28;97949;-37
2023/10/03 04:55:04;;;;;;;;;;;22.50;79.50;;;;;;4936604;28;95170;-37
2023/10/03 04:57:30;;;;;;;;;;;22.50;79.50;;;;;;4937406;28;95316;-38
2023/10/03 04:59:56;;;;;;;;;;;22.40;79.50;;;;;;4936822;28;94821;-37
2023/10/03 05:02:22;;;;;;;;;;;22.40;79.40;;;;;;4932570;28;96165;-37
2023/10/03 05:04:47;;;;;;;;;;;22.50;79.30;;;;;;4924948;28;99676;-37
2023/10/03 05:07:13;;;;;;;;;;;22.40;79.40;;;;;;4930916;28;96063;-38
2023/10/03 05:09:38;;;;;;;;;;;22.40;80.00;;;;;;4921097;28;95234;-38
2023/10/03 05:12:04;;;;;;;;;;;22.50;80.10;;;;;;4935392;28;95139;-38
2023/10/03 05:14:30;;;;;;;;;;;22.50;80.40;;;;;;4933016;28;97322;-38
2023/10/03 05:16:59;;;;;;;;;;;22.50;80.60;;;;;;4939710;28;95329;-38
2023/10/03 05:19:25;;;;;;;;;;;22.50;80.60;;;;;;4940615;28;95444;-38
2023/10/03 05:21:52;;;;;;;;;;;22.50;80.60;;;;;;4929870;28;94689;-37
2023/10/03 05:24:19;;;;;;;;;;;22.60;80.60;;;;;;4930102;28;94544;-37
2023/10/03 05:26:44;;;;;;;;;;;22.50;80.40;;;;;;4928421;28;102349;-38
2023/10/03 05:29:10;;;;;;;;;;;22.50;80.60;;;;;;4914623;28;95463;-38
2023/10/03 05:31:40;;;;;;;;;;;22.50;81.10;;;;;;4937107;28;96616;-37
2023/10/03 05:34:09;;;;;;;;;;;22.50;80.40;;;;;;4934453;28;94707;-38
2023/10/03 05:36:35;;;;;;;;;;;22.40;80.50;;;;;;4938644;28;95033;-38
2023/10/03 05:39:01;;;;;;;;;;;22.50;80.50;;;;;;4939777;28;94758;-38
2023/10/03 05:41:27;;;;;;;;;;;22.50;80.50;;;;;;4935802;28;95383;-38
2023/10/03 05:43:52;;;;;;;;;;;22.50;80.50;;;;;;4933128;28;96246;-37
2023/10/03 05:46:18;;;;;;;;;;;22.50;80.70;;;;;;4929838;28;96204;-37
2023/10/03 05:48:44;;;;;;;;;;;22.50;81.30;;;;;;4930439;28;94124;-37
2023/10/03 05:51:09;;;;;;;;;;;22.50;81.50;;;;;;4941673;28;94986;-38
2023/10/03 05:53:35;;;;;;;;;;;22.50;81.50;;;;;;4935795;28;94505;-38
2023/10/03 05:56:01;;;;;;;;;;;22.50;81.50;;;;;;4941848;28;95836;-38
2023/10/03 05:58:27;;;;;;;;;;;22.50;81.50;;;;;;4943827;28;95103;-37
2023/10/03 06:00:52;;;;;;;;;;;22.50;81.50;;;;;;4933792;28;96829;-38
2023/10/03 06:03:18;;;;;;;;;;;22.50;81.40;;;;;;4916797;28;94935;-38
2023/10/03 06:05:44;;;;;;;;;;;22.50;81.40;;;;;;4933160;28;94543;-38
2023/10/03 06:08:12;;;;;;;;;;;22.50;81.30;;;;;;4937442;28;95103;-38
2023/10/03 06:10:38;;;;;;;;;;;22.40;81.10;;;;;;4934020;28;95134;-37
2023/10/03 06:13:07;;;;;;;;;;;22.50;81.10;;;;;;4939649;28;93928;-38
2023/10/03 06:15:36;;;;;;;;;;;22.50;81.10;;;;;;4938850;28;94666;-38
2023/10/03 06:18:04;;;;;;;;;;;22.40;81.00;;;;;;4939749;28;94695;-38
2023/10/03 06:20:30;;;;;;;;;;;22.50;81.10;;;;;;4938551;28;95693;-37
2023/10/03 06:22:56;;;;;;;;;;;22.40;81.00;;;;;;4936760;28;99014;-38
2023/10/03 06:25:23;;;;;;;;;;;22.50;81.00;;;;;;4939898;28;96718;-38
2023/10/03 06:27:48;;;;;;;;;;;22.50;81.00;;;;;;4938517;28;94373;-38
2023/10/03 06:30:14;;;;;;;;;;;22.40;80.80;;;;;;4941084;28;95303;-37
2023/10/03 06:32:41;;;;;;;;;;;22.50;81.00;;;;;;4933589;28;98977;-37
2023/10/03 06:35:08;;;;;;;;;;;22.40;80.80;;;;;;4935224;28;95122;-38
2023/10/03 06:37:34;;;;;;;;;;;22.40;80.80;;;;;;4938130;28;93439;-37
2023/10/03 06:40:00;;;;;;;;;;;22.50;80.90;;;;;;4935600;28;94917;-37
2023/10/03 06:42:26;;;;;;;;;;;22.50;80.90;;;;;;4938920;28;95592;-37
2023/10/03 06:44:52;;;;;;;;;;;22.40;80.90;;;;;;4937300;28;96552;-37
2023/10/03 06:47:20;;;;;;;;;;;22.50;80.90;;;;;;4936190;28;96384;-38
2023/10/03 06:49:45;;;;;;;;;;;22.50;80.80;;;;;;4934336;28;94876;-37
2023/10/03 06:52:11;;;;;;;;;;;22.50;80.80;;;;;;4935968;28;94557;-37
2023/10/03 06:54:36;;;;;;;;;;;22.50;80.70;;;;;;4935499;28;95626;-37
2023/10/03 06:57:03;;;;;;;;;;;22.40;80.70;;;;;;4935115;28;95505;-38
2023/10/03 06:59:29;;;;;;;;;;;22.50;80.70;;;;;;4934950;28;95515;-37
2023/10/03 07:01:55;;;;;;;;;;;22.40;80.60;;;;;;4936710;28;94430;-38
2023/10/03 07:04:20;;;;;;;;;;;22.40;80.60;;;;;;4938742;28;94842;-37
2023/10/03 07:06:46;;;;;;;;;;;22.40;80.60;;;;;;4935524;28;94855;-37
2023/10/03 07:09:13;;;;;;;;;;;22.40;80.60;;;;;;4939516;28;97144;-39
2023/10/03 07:11:39;;;;;;;;;;;22.40;80.50;;;;;;4937497;28;97722;-40
2023/10/03 07:16:48;;;;;;;;;;;22.40;80.60;;;;;;4936721;28;94683;-40
2023/10/03 07:19:14;;;;;;;;;;;22.40;80.50;;;;;;4940741;28;94625;-40
2023/10/03 07:21:40;;;;;;;;;;;22.50;80.40;;;;;;4934434;28;94841;-41
2023/10/03 07:24:06;;;;;;;;;;;22.40;80.30;;;;;;4945097;28;95497;-40
2023/10/03 07:26:32;;;;;;;;;;;22.40;80.30;;;;;;4933519;28;94518;-40
2023/10/03 07:28:58;;;;;;;;;;;22.40;80.30;;;;;;4940894;28;94787;-40
2023/10/03 07:31:24;;;;;;;;;;;22.40;80.20;;;;;;4933823;28;95134;-43
2023/10/03 07:33:52;;;;;;;;;;;22.40;80.30;;;;;;4935831;28;95743;-39
2023/10/03 07:36:18;;;;;;;;;;;22.40;80.20;;;;;;4942579;28;94642;-41
2023/10/03 07:38:45;;;;;;;;;;;22.40;80.20;;;;;;4934988;28;95737;-39
2023/10/03 07:41:13;;;;;;;;;;;22.40;80.00;;;;;;4941829;28;94919;-42
2023/10/03 07:43:42;;;;;;;;;;;22.40;80.10;;;;;;4936913;28;94647;-39
2023/10/03 07:46:07;;;;;;;;;;;22.40;80.10;;;;;;4941718;28;94399;-38
2023/10/03 07:48:33;;;;;;;;;;;22.40;80.00;;;;;;4936199;28;94995;-38
2023/10/03 07:50:58;;;;;;;;;;;22.40;80.10;;;;;;4937512;28;94799;-39
2023/10/03 07:53:24;;;;;;;;;;;22.40;79.80;;;;;;4935426;28;95907;-39
2023/10/03 07:55:49;;;;;;;;;;;22.40;79.70;;;;;;4944632;28;95014;-40
2023/10/03 07:58:15;;;;;;;;;;;22.40;80.00;;;;;;4937694;28;96022;-38
2023/10/03 08:00:44;;;;;;;;;;;22.40;79.70;;;;;;4942597;28;94733;-39
2023/10/03 08:03:11;;;;;;;;;;;22.40;79.60;;;;;;4941368;28;94770;-39
2023/10/03 08:05:37;;;;;;;;;;;22.40;79.90;;;;;;4942867;28;94616;-40
2023/10/03 08:08:04;;;;;;;;;;;22.40;79.90;;;;;;4940395;28;95897;-39
2023/10/03 08:10:30;;;;;;;;;;;22.30;79.60;;;;;;4931200;28;95517;-38
2023/10/03 08:12:57;;;;;;;;;;;22.40;79.80;;;;;;4943757;28;95220;-38
2023/10/03 08:15:23;;;;;;;;;;;22.40;79.90;;;;;;4937114;28;94586;-38
2023/10/03 08:17:53;;;;;;;;;;;22.40;79.80;;;;;;4943401;28;96236;-39
2023/10/03 08:20:18;;;;;;;;;;;22.40;79.70;;;;;;4934937;28;94811;-40
2023/10/03 08:22:50;;;;;;;;;;;22.40;79.70;;;;;;4939129;28;95711;-39
2023/10/03 08:25:19;;;;;;;;;;;22.40;79.70;;;;;;4936813;28;96761;-38
2023/10/03 08:27:46;;;;;;;;;;;22.40;79.60;;;;;;4935357;28;96170;-38
2023/10/03 08:30:28;;;;;;;;;;;22.30;79.50;;;;;;4938055;28;97893;-38
2023/10/03 08:32:54;;;;;;;;;;;22.30;79.50;;;;;;4936702;28;94306;-40
2023/10/03 08:35:20;;;;;;;;;;;22.30;79.50;;;;;;4935698;28;94774;-39
2023/10/03 08:37:45;;;;;;;;;;;22.40;79.40;;;;;;4936558;28;95381;-39
2023/10/03 08:40:19;;;;;;;;;;;22.30;79.30;;;;;;4932486;28;96102;-39
2023/10/03 08:42:52;;;;;;;;;;;22.30;79.40;;;;;;4943515;28;94566;-38
2023/10/03 08:45:22;;;;;;;;;;;22.30;79.50;;;;;;4935994;28;95411;-40
2023/10/03 08:47:51;;;;;;;;;;;22.30;79.40;;;;;;4935075;28;96166;-39
2023/10/03 08:50:33;;;;;;;;;;;22.30;79.20;;;;;;4933444;28;95453;-39
2023/10/03 08:53:12;;;;;;;;;;;22.30;79.20;;;;;;4936635;28;94510;-39
2023/10/03 08:55:45;;;;;;;;;;;22.30;79.30;;;;;;4931836;28;95675;-40
2023/10/03 08:58:13;;;;;;;;;;;22.30;79.20;;;;;;4934605;28;94646;-39
2023/10/03 09:00:46;;;;;;;;;;;22.30;80.00;;;;;;4941136;28;94331;-40
2023/10/03 09:03:12;;;;;;;;;;;22.30;79.20;;;;;;4943421;28;96772;-39
2023/10/03 09:05:41;;;;;;;;;;;22.30;79.20;;;;;;4939530;28;94622;-41
2023/10/03 09:08:10;;;;;;;;;;;22.30;79.10;;;;;;4938022;28;94949;-40
2023/10/03 09:10:51;;;;;;;;;;;22.30;79.00;;;;;;4935314;28;95265;-40
2023/10/03 09:13:23;;;;;;;;;;;22.30;79.20;;;;;;4939685;28;96057;-38
2023/10/03 09:16:07;;;;;;;;;;;22.30;79.10;;;;;;4944610;28;96346;-41
2023/10/03 09:18:42;;;;;;;;;;;22.30;79.20;;;;;;4939239;28;94926;-40
2023/10/03 09:21:23;;;;;;;;;;;22.30;79.10;;;;;;4941639;28;95941;-38
2023/10/03 09:24:01;;;;;;;;;;;22.30;78.80;;;;;;4921771;28;95189;-38
2023/10/03 09:26:45;;;;;;;;;;;22.20;78.80;;;;;;4934642;28;94246;-39
2023/10/03 09:29:11;;;;;;;;;;;22.30;78.90;;;;;;4938506;28;95317;-37
2023/10/03 09:31:37;;;;;;;;;;;22.30;78.80;;;;;;4939969;28;94165;-37
2023/10/03 09:34:02;;;;;;;;;;;22.30;78.70;;;;;;4942307;28;95677;-36
2023/10/03 09:36:28;;;;;;;;;;;22.20;78.60;;;;;;4938464;28;94943;-37
2023/10/03 09:38:55;;;;;;;;;;;22.30;78.70;;;;;;4937423;28;99487;-37
2023/10/03 09:41:24;;;;;;;;;;;22.30;78.50;;;;;;4938642;28;94777;-37
2023/10/03 09:43:56;;;;;;;;;;;22.30;78.50;;;;;;4938369;28;97511;-37
2023/10/03 09:46:41;;;;;;;;;;;22.30;78.50;;;;;;4942499;28;94798;-37
2023/10/03 09:49:10;;;;;;;;;;;22.30;78.50;;;;;;4940079;28;99165;-37
2023/10/03 09:51:51;;;;;;;;;;;22.30;78.10;;;;;;4936940;28;94693;-37
2023/10/03 09:54:30;;;;;;;;;;;22.40;78.20;;;;;;4942676;28;96583;-37
2023/10/03 09:56:57;;;;;;;;;;;22.30;78.00;;;;;;4940714;28;94590;-37
2023/10/03 09:59:24;;;;;;;;;;;22.30;78.00;;;;;;4942008;28;95112;-37
2023/10/03 10:01:54;;;;;;;;;;;22.30;78.00;;;;;;4944185;28;94966;-37
2023/10/03 10:04:21;;;;;;;;;;;22.30;78.00;;;;;;4936940;28;96975;-37
2023/10/03 10:06:50;;;;;;;;;;;22.40;78.00;;;;;;4943514;28;94849;-37
2023/10/03 10:09:28;;;;;;;;;;;22.30;77.70;;;;;;4938572;28;94755;-37
2023/10/03 10:12:13;;;;;;;;;;;22.30;77.80;;;;;;4939762;28;96411;-37
2023/10/03 10:15:00;;;;;;;;;;;22.40;77.70;;;;;;4940499;28;94794;-37
2023/10/03 10:17:41;;;;;;;;;;;22.40;77.60;;;;;;4941333;28;96824;-37
2023/10/03 10:20:13;;;;;;;;;;;22.30;77.30;;;;;;4937243;28;95522;-37
2023/10/03 10:25:41;;;;;;;;;;;22.40;77.30;;;;;;4939607;28;95115;-37
2023/10/03 10:28:08;;;;;;;;;;;22.40;77.20;;;;;;4939529;28;94646;-38
2023/10/03 10:30:34;;;;;;;;;;;22.40;77.10;;;;;;4942171;28;97445;-39
2023/10/03 10:33:18;;;;;;;;;;;22.40;77.00;;;;;;4932109;28;96558;-37
2023/10/03 10:36:00;;;;;;;;;;;22.40;77.10;;;;;;4940806;28;95529;-37
2023/10/03 10:38:31;;;;;;;;;;;22.40;77.10;;;;;;4939899;28;95143;-37
2023/10/03 10:41:12;;;;;;;;;;;22.40;77.60;;;;;;4937361;28;95191;-37
2023/10/03 10:43:55;;;;;;;;;;;22.40;76.70;;;;;;4936251;28;95122;-37
2023/10/03 10:46:31;;;;;;;;;;;22.40;76.50;;;;;;4946728;28;97634;-37
2023/10/03 10:48:56;;;;;;;;;;;22.40;76.60;;;;;;4942835;28;95385;-37
2023/10/03 10:51:22;;;;;;;;;;;22.40;76.40;;;;;;4941606;28;95139;-38
2023/10/03 10:53:48;;;;;;;;;;;22.40;76.70;;;;;;4929260;28;94931;-37
2023/10/03 10:56:13;;;;;;;;;;;22.40;76.60;;;;;;4941168;28;96441;-37
2023/10/03 10:58:53;;;;;;;;;;;22.40;76.70;;;;;;4944252;28;94758;-37
2023/10/03 11:01:19;;;;;;;;;;;22.40;76.50;;;;;;4941634;28;95226;-37
2023/10/03 11:03:45;;;;;;;;;;;22.40;76.40;;;;;;4944946;28;94788;-38
2023/10/03 11:06:15;;;;;;;;;;;22.50;76.40;;;;;;4939490;28;94683;-37
2023/10/03 11:08:44;;;;;;;;;;;22.40;76.10;;;;;;4940505;28;98801;-37
2023/10/03 11:11:10;;;;;;;;;;;22.40;76.30;;;;;;4942500;28;95010;-37
2023/10/03 11:13:43;;;;;;;;;;;22.40;76.20;;;;;;4938777;28;93977;-37
2023/10/03 11:16:10;;;;;;;;;;;22.40;76.70;;;;;;4948640;28;95126;-37
2023/10/03 11:18:36;;;;;;;;;;;22.40;76.50;;;;;;4949361;28;94685;-36
2023/10/03 11:21:03;;;;;;;;;;;22.40;75.70;;;;;;4943831;28;96118;-38
2023/10/03 11:23:29;;;;;;;;;;;22.40;75.70;;;;;;4943640;28;95389;-37
2023/10/03 11:25:55;;;;;;;;;;;22.40;76.00;;;;;;4940440;28;97092;-37
2023/10/03 11:28:21;;;;;;;;;;;22.40;76.00;;;;;;4945842;28;98094;-37
2023/10/03 11:31:05;;;;;;;;;;;22.40;75.70;;;;;;4938295;28;95847;-37
2023/10/03 11:33:41;;;;;;;;;;;22.40;76.00;;;;;;4944627;28;94796;-37
2023/10/03 11:36:07;;;;;;;;;;;22.40;75.80;;;;;;4944550;28;94944;-37
2023/10/03 11:38:42;;;;;;;;;;;22.40;75.90;;;;;;4942837;28;93981;-37
2023/10/03 11:41:08;;;;;;;;;;;22.40;75.40;;;;;;4941476;28;96499;-37
2023/10/03 11:43:42;;;;;;;;;;;22.40;75.60;;;;;;4939420;28;95038;-37
2023/10/03 11:46:10;;;;;;;;;;;22.50;75.60;;;;;;4935444;28;96349;-38
2023/10/03 11:48:36;;;;;;;;;;;22.40;75.30;;;;;;4940391;28;97826;-37
2023/10/03 11:51:02;;;;;;;;;;;22.40;74.90;;;;;;4947045;28;95670;-37
2023/10/03 11:53:27;;;;;;;;;;;22.40;75.00;;;;;;4940638;28;95134;-37
2023/10/03 11:55:53;;;;;;;;;;;22.50;75.10;;;;;;4939805;28;98301;-37
2023/10/03 11:58:18;;;;;;;;;;;22.40;75.10;;;;;;4947689;28;94760;-37
2023/10/03 12:00:44;;;;;;;;;;;22.50;75.00;;;;;;4941188;28;95694;-37
2023/10/03 12:03:10;;;;;;;;;;;22.50;74.80;;;;;;4942943;28;93936;-37
2023/10/03 12:05:36;;;;;;;;;;;22.50;74.70;;;;;;4936965;28;94650;-37
2023/10/03 12:08:06;;;;;;;;;;;22.50;74.70;;;;;;4939069;28;94699;-37
2023/10/03 12:10:34;;;;;;;;;;;22.60;74.40;;;;;;4940417;28;95684;-37
2023/10/03 12:12:59;;;;;;;;;;;22.60;74.30;;;;;;4937281;28;96475;-36
2023/10/03 12:15:25;;;;;;;;;;;22.50;74.20;;;;;;4939238;28;95613;-38
2023/10/03 12:17:51;;;;;;;;;;;22.60;74.20;;;;;;4943013;28;98348;-37
2023/10/03 12:20:18;;;;;;;;;;;22.60;74.10;;;;;;4939586;28;95358;-36
2023/10/03 12:22:50;;;;;;;;;;;22.50;73.90;;;;;;4935042;28;94721;-37
2023/10/03 12:25:20;;;;;;;;;;;22.50;74.10;;;;;;4941611;28;95777;-38
2023/10/03 12:27:45;;;;;;;;;;;22.50;73.70;;;;;;4940930;28;94532;-37
2023/10/03 12:30:12;;;;;;;;;;;22.50;74.20;;;;;;4941047;28;95625;-37
2023/10/03 12:32:42;;;;;;;;;;;22.50;73.40;;;;;;4937602;28;95812;-37
2023/10/03 12:35:08;;;;;;;;;;;22.60;73.90;;;;;;4936448;28;95817;-38
2023/10/03 12:37:34;;;;;;;;;;;22.60;73.40;;;;;;4947017;28;94104;-37
2023/10/03 12:40:13;;;;;;;;;;;22.60;73.60;;;;;;4939478;28;95360;-37
2023/10/03 12:42:49;;;;;;;;;;;22.50;73.00;;;;;;4942301;28;95211;-38
2023/10/03 12:45:17;;;;;;;;;;;22.60;73.90;;;;;;4946280;28;94604;-38
2023/10/03 12:47:48;;;;;;;;;;;22.60;73.10;;;;;;4947770;28;94803;-37
2023/10/03 12:50:19;;;;;;;;;;;22.60;73.10;;;;;;4943449;28;95152;-37
2023/10/03 12:52:47;;;;;;;;;;;22.60;73.10;;;;;;4941658;28;96060;-38
2023/10/03 12:55:15;;;;;;;;;;;22.70;73.20;;;;;;4938287;28;94777;-37
2023/10/03 12:57:41;;;;;;;;;;;22.70;73.10;;;;;;4941338;28;96268;-38
2023/10/03 13:00:09;;;;;;;;;;;22.70;73.10;;;;;;4935486;28;97570;-38
2023/10/03 13:02:34;;;;;;;;;;;22.70;73.10;;;;;;4945716;28;94685;-37
2023/10/03 13:05:05;;;;;;;;;;;22.70;73.20;;;;;;4939818;28;95851;-38
2023/10/03 13:07:35;;;;;;;;;;;22.70;73.10;;;;;;4945601;28;94734;-38
2023/10/03 13:10:04;;;;;;;;;;;22.70;73.10;;;;;;4936878;28;95328;-37
2023/10/03 13:12:29;;;;;;;;;;;22.80;73.10;;;;;;4938366;28;95117;-37
2023/10/03 13:14:55;;;;;;;;;;;22.80;72.90;;;;;;4939745;28;94681;-37
2023/10/03 13:17:22;;;;;;;;;;;22.80;73.10;;;;;;4943992;28;94180;-37
2023/10/03 13:19:48;;;;;;;;;;;22.80;72.90;;;;;;4938804;28;97335;-39
2023/10/03 13:22:13;;;;;;;;;;;22.80;72.90;;;;;;4940090;28;96229;-38
2023/10/03 13:24:39;;;;;;;;;;;22.80;72.80;;;;;;4941789;28;95503;-37
2023/10/03 13:27:05;;;;;;;;;;;22.80;72.50;;;;;;4933697;28;97296;-37
2023/10/03 13:29:32;;;;;;;;;;;22.80;72.50;;;;;;4938868;28;94739;-37
2023/10/03 13:31:58;;;;;;;;;;;22.80;72.60;;;;;;4934303;28;96311;-37
2023/10/03 13:34:25;;;;;;;;;;;22.80;72.30;;;;;;4935366;28;94790;-37
2023/10/03 13:36:53;;;;;;;;;;;22.80;72.10;;;;;;4935186;28;94775;-37
2023/10/03 13:39:19;;;;;;;;;;;22.80;72.10;;;;;;4934982;28;95287;-37
2023/10/03 13:41:45;;;;;;;;;;;22.80;71.50;;;;;;4937417;28;97213;-38
2023/10/03 13:44:11;;;;;;;;;;;22.90;71.20;;;;;;4942876;28;94697;-38
2023/10/03 13:46:38;;;;;;;;;;;22.80;70.70;;;;;;4939398;28;94746;-38
2023/10/03 13:49:06;;;;;;;;;;;22.80;71.10;;;;;;4933633;28;96456;-37
2023/10/03 13:51:34;;;;;;;;;;;22.80;70.70;;;;;;4940930;28;96295;-38
2023/10/03 13:54:02;;;;;;;;;;;22.90;70.80;;;;;;4934713;28;94784;-37
2023/10/03 13:56:28;;;;;;;;;;;22.90;70.90;;;;;;4935949;28;94979;-37
2023/10/03 13:58:53;;;;;;;;;;;22.90;70.70;;;;;;4932880;28;97477;-38
2023/10/03 14:01:19;;;;;;;;;;;22.90;70.60;;;;;;4940273;28;94584;-39
2023/10/03 14:03:46;;;;;;;;;;;22.90;70.60;;;;;;4937064;28;95223;-38
2023/10/03 14:06:16;;;;;;;;;;;23.00;70.80;;;;;;4936368;28;94415;-37
2023/10/03 14:08:43;;;;;;;;;;;23.00;70.80;;;;;;4941248;28;94946;-37
2023/10/03 14:11:08;;;;;;;;;;;23.00;70.90;;;;;;4934967;28;95036;-38
2023/10/03 14:13:34;;;;;;;;;;;23.00;70.70;;;;;;4942618;28;96097;-38
2023/10/03 14:16:00;;;;;;;;;;;23.00;70.60;;;;;;4935789;28;97669;-37
2023/10/03 14:18:26;;;;;;;;;;;23.00;70.50;;;;;;4935417;28;97517;-37
2023/10/03 14:20:52;;;;;;;;;;;23.00;70.50;;;;;;4931333;28;94989;-37
2023/10/03 14:23:17;;;;;;;;;;;23.00;70.30;;;;;;4939033;28;94682;-38
2023/10/03 14:25:43;;;;;;;;;;;23.00;70.30;;;;;;4934061;28;95967;-38
2023/10/03 14:28:10;;;;;;;;;;;23.00;70.50;;;;;;4935713;28;94733;-37